www.winti-wetter.ch
Wetterdaten: aktuell Montag, 01.06.2020 15:25
Datum Zeit Temp. A. Feuchte A. Luftdruck Regen Wind Richtung Richtung Sonnenschein T Zeit Regen Solar Windben
01.06.2020 15:25 24.7 C 40 % 1017.0 hPa 0.0 l/m 8.7 km/h O 88 5 min 0 min 812 W/m 17.7 km/h
01.06.2020 15:20 24.7 C 42 % 1017.0 hPa 0.0 l/m 10.4 km/h N 355 5 min 0 min 817 W/m 20.9 km/h
01.06.2020 15:15 24.6 C 43 % 1017.0 hPa 0.0 l/m 9.3 km/h O-NO 78 5 min 0 min 826 W/m 19.3 km/h
01.06.2020 15:10 24.2 C 41 % 1017.1 hPa 0.0 l/m 10.7 km/h NO 43 5 min 0 min 834 W/m 20.9 km/h
01.06.2020 15:05 24.1 C 43 % 1017.1 hPa 0.0 l/m 7.8 km/h O-NO 57 5 min 0 min 841 W/m 20.9 km/h
01.06.2020 15:00 24.2 C 42 % 1017.1 hPa 0.0 l/m 8.9 km/h O-NO 71 5 min 0 min 846 W/m 16.1 km/h
01.06.2020 14:55 24.6 C 41 % 1017.1 hPa 0.0 l/m 9.2 km/h NO 43 5 min 0 min 851 W/m 24.1 km/h
01.06.2020 14:50 24.8 C 43 % 1017.1 hPa 0.0 l/m 4.7 km/h W-NW 298 5 min 0 min 855 W/m 12.9 km/h
01.06.2020 14:45 23.9 C 44 % 1017.2 hPa 0.0 l/m 7.0 km/h O 100 5 min 0 min 864 W/m 17.7 km/h
01.06.2020 14:40 24.2 C 43 % 1017.3 hPa 0.0 l/m 8.6 km/h N-NO 29 5 min 0 min 870 W/m 20.9 km/h
01.06.2020 14:35 23.9 C 43 % 1017.3 hPa 0.0 l/m 9.5 km/h O-SO 117 5 min 0 min 876 W/m 16.1 km/h
01.06.2020 14:30 23.8 C 44 % 1017.3 hPa 0.0 l/m 6.1 km/h O-NO 71 5 min 0 min 877 W/m 11.3 km/h
01.06.2020 14:25 23.6 C 43 % 1017.3 hPa 0.0 l/m 6.9 km/h O-SO 103 5 min 0 min 879 W/m 19.3 km/h
01.06.2020 14:20 24.1 C 44 % 1017.3 hPa 0.0 l/m 5.6 km/h N 360 5 min 0 min 887 W/m 12.9 km/h
01.06.2020 14:15 23.6 C 47 % 1017.5 hPa 0.0 l/m 12.9 km/h O 96 5 min 0 min 890 W/m 20.9 km/h
01.06.2020 14:10 23.6 C 46 % 1017.4 hPa 0.0 l/m 7.8 km/h N 9 5 min 0 min 894 W/m 19.3 km/h
01.06.2020 14:05 23.5 C 47 % 1017.5 hPa 0.0 l/m 7.7 km/h N-NO 19 5 min 0 min 897 W/m 14.5 km/h
01.06.2020 14:00 23.7 C 44 % 1017.5 hPa 0.0 l/m 8.3 km/h N-NO 26 5 min 0 min 896 W/m 17.7 km/h
01.06.2020 13:55 23.4 C 47 % 1017.6 hPa 0.0 l/m 8.4 km/h N-NO 18 5 min 0 min 902 W/m 19.3 km/h
01.06.2020 13:50 23.3 C 48 % 1017.7 hPa 0.0 l/m 8.9 km/h N-NO 32 5 min 0 min 903 W/m 16.1 km/h
01.06.2020 13:45 22.9 C 48 % 1017.7 hPa 0.0 l/m 6.0 km/h O 101 5 min 0 min 905 W/m 16.1 km/h
01.06.2020 13:40 23.0 C 47 % 1017.7 hPa 0.0 l/m 8.9 km/h N-NO 32 5 min 0 min 906 W/m 17.7 km/h
01.06.2020 13:35 22.7 C 47 % 1017.7 hPa 0.0 l/m 7.0 km/h SO 131 5 min 0 min 909 W/m 19.3 km/h
01.06.2020 13:30 22.8 C 45 % 1017.7 hPa 0.0 l/m 11.9 km/h N-NO 20 5 min 0 min 906 W/m 20.9 km/h
01.06.2020 13:25 22.7 C 48 % 1017.8 hPa 0.0 l/m 6.9 km/h N 5 5 min 0 min 909 W/m 19.3 km/h
01.06.2020 13:20 22.5 C 48 % 1017.8 hPa 0.0 l/m 6.9 km/h NW 314 5 min 0 min 910 W/m 16.1 km/h
01.06.2020 13:15 22.3 C 47 % 1017.9 hPa 0.0 l/m 11.6 km/h O-SO 120 5 min 0 min 910 W/m 19.3 km/h
01.06.2020 13:10 22.3 C 50 % 1017.8 hPa 0.0 l/m 6.7 km/h S-SO 148 5 min 0 min 910 W/m 14.5 km/h
01.06.2020 13:05 22.4 C 49 % 1017.9 hPa 0.0 l/m 8.4 km/h O 95 5 min 0 min 910 W/m 19.3 km/h
01.06.2020 13:00 22.2 C 49 % 1017.9 hPa 0.0 l/m 8.6 km/h NO 37 5 min 0 min 906 W/m 19.3 km/h
01.06.2020 12:55 21.8 C 48 % 1018.0 hPa 0.0 l/m 5.9 km/h N 360 5 min 0 min 904 W/m 16.1 km/h
01.06.2020 12:50 21.9 C 48 % 1018.0 hPa 0.0 l/m 7.7 km/h NO 53 5 min 0 min 904 W/m 17.7 km/h
01.06.2020 12:45 21.8 C 51 % 1018.1 hPa 0.0 l/m 6.9 km/h O 95 5 min 0 min 902 W/m 17.7 km/h
01.06.2020 12:40 21.2 C 52 % 1018.1 hPa 0.0 l/m 9.0 km/h O-NO 59 5 min 0 min 898 W/m 20.9 km/h
01.06.2020 12:35 21.2 C 51 % 1018.2 hPa 0.0 l/m 6.9 km/h SO 127 5 min 0 min 895 W/m 16.1 km/h
01.06.2020 12:30 21.2 C 50 % 1018.2 hPa 0.0 l/m 10.3 km/h O 84 5 min 0 min 890 W/m 24.1 km/h
01.06.2020 12:25 21.2 C 51 % 1018.2 hPa 0.0 l/m 12.7 km/h O-NO 66 5 min 0 min 887 W/m 24.1 km/h
01.06.2020 12:20 21.2 C 50 % 1018.3 hPa 0.0 l/m 7.3 km/h N 9 5 min 0 min 883 W/m 16.1 km/h
01.06.2020 12:15 20.8 C 53 % 1018.4 hPa 0.0 l/m 9.1 km/h O-SO 107 5 min 0 min 878 W/m 16.1 km/h
01.06.2020 12:10 20.6 C 49 % 1018.4 hPa 0.0 l/m 10.7 km/h N-NW 346 5 min 0 min 875 W/m 20.9 km/h
01.06.2020 12:05 20.3 C 49 % 1018.3 hPa 0.0 l/m 10.8 km/h NO 49 5 min 0 min 870 W/m 20.9 km/h
01.06.2020 12:00 20.3 C 50 % 1018.3 hPa 0.0 l/m 9.8 km/h O 98 5 min 0 min 864 W/m 19.3 km/h
01.06.2020 11:55 20.2 C 51 % 1018.5 hPa 0.0 l/m 12.6 km/h N-NW 330 5 min 0 min 858 W/m 22.5 km/h
01.06.2020 11:50 20.2 C 51 % 1018.4 hPa 0.0 l/m 9.0 km/h N-NO 19 5 min 0 min 852 W/m 20.9 km/h
01.06.2020 11:45 20.4 C 51 % 1018.4 hPa 0.0 l/m 10.2 km/h O-NO 65 5 min 0 min 846 W/m 24.1 km/h
01.06.2020 11:40 20.1 C 49 % 1018.3 hPa 0.0 l/m 7.7 km/h NO 45 5 min 0 min 839 W/m 16.1 km/h
01.06.2020 11:35 19.7 C 52 % 1018.3 hPa 0.0 l/m 8.6 km/h O 90 5 min 0 min 833 W/m 17.7 km/h
01.06.2020 11:30 19.6 C 51 % 1018.4 hPa 0.0 l/m 6.5 km/h O 92 5 min 0 min 827 W/m 16.1 km/h
01.06.2020 11:25 19.2 C 57 % 1018.4 hPa 0.0 l/m 7.0 km/h NO 40 5 min 0 min 819 W/m 17.7 km/h
01.06.2020 11:20 19.2 C 53 % 1018.5 hPa 0.0 l/m 8.0 km/h O-NO 64 5 min 0 min 811 W/m 16.1 km/h
01.06.2020 11:15 19.4 C 55 % 1018.5 hPa 0.0 l/m 8.0 km/h N-NO 22 5 min 0 min 804 W/m 16.1 km/h
01.06.2020 11:10 19.3 C 58 % 1018.4 hPa 0.0 l/m 7.3 km/h NW 308 5 min 0 min 795 W/m 17.7 km/h
01.06.2020 11:05 18.6 C 56 % 1018.5 hPa 0.0 l/m 7.0 km/h NW 315 5 min 0 min 787 W/m 12.9 km/h
01.06.2020 11:00 18.4 C 59 % 1018.5 hPa 0.0 l/m 8.3 km/h N-NO 32 5 min 0 min 777 W/m 20.9 km/h
01.06.2020 10:55 18.2 C 56 % 1018.6 hPa 0.0 l/m 6.9 km/h N-NW 327 5 min 0 min 752 W/m 16.1 km/h
01.06.2020 10:50 18.4 C 57 % 1018.6 hPa 0.0 l/m 7.4 km/h N 11 5 min 0 min 759 W/m 14.5 km/h
01.06.2020 10:45 18.1 C 57 % 1018.5 hPa 0.0 l/m 8.7 km/h N 360 5 min 0 min 749 W/m 17.7 km/h
01.06.2020 10:40 17.9 C 57 % 1018.6 hPa 0.0 l/m 7.5 km/h O 88 5 min 0 min 739 W/m 16.1 km/h
01.06.2020 10:35 17.9 C 58 % 1018.6 hPa 0.0 l/m 7.7 km/h N 360 5 min 0 min 729 W/m 17.7 km/h
01.06.2020 10:30 17.4 C 60 % 1018.6 hPa 0.0 l/m 8.6 km/h NO 38 5 min 0 min 719 W/m 16.1 km/h
01.06.2020 10:25 17.2 C 60 % 1018.7 hPa 0.0 l/m 9.9 km/h O-NO 59 5 min 0 min 708 W/m 19.3 km/h
01.06.2020 10:20 17.4 C 59 % 1018.6 hPa 0.0 l/m 8.2 km/h N 11 5 min 0 min 697 W/m 17.7 km/h
01.06.2020 10:15 17.3 C 61 % 1018.5 hPa 0.0 l/m 8.7 km/h N-NO 17 5 min 0 min 686 W/m 16.1 km/h
01.06.2020 10:10 17.3 C 60 % 1018.4 hPa 0.0 l/m 10.4 km/h O-NO 66 5 min 0 min 671 W/m 19.3 km/h
01.06.2020 10:05 17.2 C 60 % 1018.4 hPa 0.0 l/m 6.3 km/h N-NW 344 5 min 0 min 629 W/m 14.5 km/h
01.06.2020 10:00 16.9 C 61 % 1018.4 hPa 0.0 l/m 9.0 km/h N-NW 346 5 min 0 min 651 W/m 16.1 km/h
01.06.2020 09:55 16.8 C 61 % 1018.4 hPa 0.0 l/m 8.5 km/h NO 43 5 min 0 min 640 W/m 17.7 km/h
01.06.2020 09:50 16.6 C 61 % 1018.5 hPa 0.0 l/m 9.4 km/h N-NO 18 5 min 0 min 628 W/m 22.5 km/h
01.06.2020 09:45 16.3 C 62 % 1018.4 hPa 0.0 l/m 11.4 km/h N-NO 21 5 min 0 min 616 W/m 19.3 km/h
01.06.2020 09:40 16.4 C 64 % 1018.5 hPa 0.0 l/m 7.9 km/h N 360 5 min 0 min 605 W/m 19.3 km/h
01.06.2020 09:35 16.3 C 63 % 1018.5 hPa 0.0 l/m 7.3 km/h O-NO 69 5 min 0 min 592 W/m 16.1 km/h
01.06.2020 09:30 16.3 C 62 % 1018.5 hPa 0.0 l/m 7.7 km/h N 10 5 min 0 min 580 W/m 17.7 km/h
01.06.2020 09:25 16.1 C 63 % 1018.5 hPa 0.0 l/m 6.9 km/h N-NO 18 5 min 0 min 566 W/m 14.5 km/h
01.06.2020 09:20 15.8 C 65 % 1018.6 hPa 0.0 l/m 6.4 km/h N 355 5 min 0 min 534 W/m 14.5 km/h
01.06.2020 09:15 15.2 C 63 % 1018.6 hPa 0.0 l/m 6.1 km/h O-NO 74 5 min 0 min 523 W/m 12.9 km/h
01.06.2020 09:10 15.3 C 65 % 1018.6 hPa 0.0 l/m 7.4 km/h N-NO 16 5 min 0 min 523 W/m 16.1 km/h
01.06.2020 09:05 15.2 C 63 % 1018.6 hPa 0.0 l/m 9.0 km/h N 355 5 min 0 min 509 W/m 17.7 km/h
01.06.2020 09:00 15.3 C 65 % 1018.6 hPa 0.0 l/m 8.2 km/h N 5 5 min 0 min 496 W/m 16.1 km/h
01.06.2020 08:55 15.1 C 65 % 1018.4 hPa 0.0 l/m 6.3 km/h NO 44 5 min 0 min 482 W/m 14.5 km/h
01.06.2020 08:50 14.4 C 67 % 1018.4 hPa 0.0 l/m 9.3 km/h NO 50 5 min 0 min 468 W/m 17.7 km/h
01.06.2020 08:45 14.4 C 65 % 1018.4 hPa 0.0 l/m 10.2 km/h N 5 5 min 0 min 454 W/m 17.7 km/h
01.06.2020 08:40 14.5 C 66 % 1018.4 hPa 0.0 l/m 8.4 km/h N-NO 20 5 min 0 min 439 W/m 16.1 km/h
01.06.2020 08:35 14.2 C 68 % 1018.4 hPa 0.0 l/m 5.1 km/h N 5 5 min 0 min 425 W/m 11.3 km/h
01.06.2020 08:30 13.9 C 68 % 1018.4 hPa 0.0 l/m 7.0 km/h N-NO 13 5 min 0 min 411 W/m 12.9 km/h
01.06.2020 08:25 13.8 C 68 % 1018.4 hPa 0.0 l/m 5.9 km/h N-NO 22 5 min 0 min 396 W/m 11.3 km/h
01.06.2020 08:20 13.7 C 69 % 1018.4 hPa 0.0 l/m 7.6 km/h N-NO 21 5 min 0 min 382 W/m 14.5 km/h
01.06.2020 08:15 13.5 C 69 % 1018.4 hPa 0.0 l/m 6.0 km/h N 5 5 min 0 min 368 W/m 9.7 km/h
01.06.2020 08:10 13.3 C 69 % 1018.4 hPa 0.0 l/m 5.6 km/h N-NW 346 5 min 0 min 355 W/m 12.9 km/h
01.06.2020 08:05 13.1 C 69 % 1018.4 hPa 0.0 l/m 5.5 km/h N 360 5 min 0 min 339 W/m 9.7 km/h
01.06.2020 08:00 12.9 C 69 % 1018.4 hPa 0.0 l/m 4.9 km/h N 5 5 min 0 min 324 W/m 8.0 km/h
01.06.2020 07:55 12.8 C 70 % 1018.4 hPa 0.0 l/m 4.7 km/h N 349 5 min 0 min 310 W/m 8.0 km/h
01.06.2020 07:50 12.5 C 72 % 1018.3 hPa 0.0 l/m 4.4 km/h N 5 5 min 0 min 272 W/m 6.4 km/h
01.06.2020 07:45 12.2 C 73 % 1018.4 hPa 0.0 l/m 4.0 km/h N-NO 22 0 min 0 min 184 W/m 6.4 km/h
01.06.2020 07:40 11.9 C 74 % 1018.3 hPa 0.0 l/m 3.9 km/h N 5 0 min 0 min 119 W/m 8.0 km/h
01.06.2020 07:35 11.6 C 78 % 1018.4 hPa 0.0 l/m 4.5 km/h N 5 0 min 0 min 108 W/m 8.0 km/h
01.06.2020 07:30 11.1 C 79 % 1018.4 hPa 0.0 l/m 3.3 km/h N-NW 345 0 min 0 min 141 W/m 4.8 km/h
01.06.2020 07:25 10.7 C 80 % 1018.4 hPa 0.0 l/m 2.9 km/h N-NW 336 5 min 0 min 202 W/m 6.4 km/h
01.06.2020 07:20 10.3 C 82 % 1018.3 hPa 0.0 l/m 1.6 km/h N 11 5 min 0 min 208 W/m 4.8 km/h
01.06.2020 07:15 10.1 C 82 % 1018.3 hPa 0.0 l/m 1.2 km/h N-NO 31 5 min 0 min 193 W/m 3.2 km/h
01.06.2020 07:10 9.7 C 83 % 1018.3 hPa 0.0 l/m 1.7 km/h N-NO 31 5 min 0 min 177 W/m 3.2 km/h
01.06.2020 07:05 9.4 C 84 % 1018.3 hPa 0.0 l/m 0.7 km/h N-NO 32 5 min 0 min 161 W/m 3.2 km/h
01.06.2020 07:00 9.3 C 84 % 1018.4 hPa 0.0 l/m 1.1 km/h N-NO 32 5 min 0 min 145 W/m 3.2 km/h
01.06.2020 06:55 9.2 C 84 % 1018.3 hPa 0.0 l/m 1.8 km/h N-NO 32 5 min 0 min 130 W/m 3.2 km/h
01.06.2020 06:50 8.8 C 86 % 1018.3 hPa 0.0 l/m 1.0 km/h N-NO 32 5 min 0 min 115 W/m 1.6 km/h
01.06.2020 06:45 8.6 C 87 % 1018.3 hPa 0.0 l/m 0.1 km/h N-NO 32 5 min 0 min 99 W/m 1.6 km/h
01.06.2020 06:40 8.4 C 88 % 1018.4 hPa 0.0 l/m 0.0 km/h N-NO 32 0 min 0 min 86 W/m 0.0 km/h
01.06.2020 06:35 8.1 C 88 % 1018.4 hPa 0.0 l/m 0.9 km/h N-NO 32 0 min 0 min 74 W/m 3.2 km/h
01.06.2020 06:30 7.9 C 89 % 1018.4 hPa 0.0 l/m 1.1 km/h N-NO 32 0 min 0 min 40 W/m 3.2 km/h
01.06.2020 06:25 7.9 C 88 % 1018.4 hPa 0.0 l/m 1.0 km/h N-NO 32 0 min 0 min 25 W/m 3.2 km/h
01.06.2020 06:20 7.8 C 89 % 1018.5 hPa 0.0 l/m 0.5 km/h N-NO 32 0 min 0 min 23 W/m 1.6 km/h
01.06.2020 06:15 7.7 C 89 % 1018.6 hPa 0.0 l/m 0.3 km/h N-NO 32 0 min 0 min 27 W/m 1.6 km/h
01.06.2020 06:10 7.6 C 89 % 1018.5 hPa 0.0 l/m 0.3 km/h N-NO 32 0 min 0 min 19 W/m 1.6 km/h
01.06.2020 06:05 7.7 C 89 % 1018.5 hPa 0.0 l/m 1.6 km/h N-NO 32 0 min 0 min 18 W/m 3.2 km/h
01.06.2020 06:00 7.5 C 89 % 1018.4 hPa 0.0 l/m 1.4 km/h N-NO 32 0 min 0 min 17 W/m 3.2 km/h
01.06.2020 05:55 7.6 C 89 % 1018.4 hPa 0.0 l/m 0.2 km/h N-NO 32 0 min 0 min 15 W/m 1.6 km/h
01.06.2020 05:50 7.6 C 88 % 1018.4 hPa 0.0 l/m 0.0 km/h N-NO 32 0 min 0 min 13 W/m 0.0 km/h
01.06.2020 05:45 7.8 C 88 % 1018.3 hPa 0.0 l/m 0.1 km/h N-NO 32 0 min 0 min 11 W/m 1.6 km/h
01.06.2020 05:40 7.9 C 87 % 1018.3 hPa 0.0 l/m 0.0 km/h N-NO 32 0 min 0 min 10 W/m 0.0 km/h
01.06.2020 05:35 7.9 C 87 % 1018.3 hPa 0.0 l/m 0.0 km/h N-NO 22 0 min 0 min 7 W/m 3.2 km/h
01.06.2020 05:30 7.9 C 87 % 1018.2 hPa 0.0 l/m 1.6 km/h N-NO 22 0 min 0 min 6 W/m 3.2 km/h
01.06.2020 05:25 8.1 C 87 % 1018.2 hPa 0.0 l/m 1.5 km/h N-NO 32 0 min 0 min 3 W/m 3.2 km/h
01.06.2020 05:20 8.0 C 86 % 1018.2 hPa 0.0 l/m 2.0 km/h N-NO 32 0 min 0 min 0 W/m 3.2 km/h
01.06.2020 05:15 8.1 C 86 % 1018.2 hPa 0.0 l/m 1.8 km/h N-NO 32 0 min 0 min 0 W/m 3.2 km/h
01.06.2020 05:10 8.1 C 86 % 1018.2 hPa 0.0 l/m 1.2 km/h N-NO 32 0 min 0 min 0 W/m 3.2 km/h
01.06.2020 05:05 8.2 C 85 % 1018.3 hPa 0.0 l/m 0.2 km/h N-NO 32 0 min 0 min 0 W/m 1.6 km/h
01.06.2020 05:00 8.3 C 85 % 1018.3 hPa 0.0 l/m 0.0 km/h N-NO 32 0 min 0 min 0 W/m 0.0 km/h
01.06.2020 04:55 8.3 C 84 % 1018.3 hPa 0.0 l/m 0.0 km/h N-NO 32 0 min 0 min 0 W/m 0.0 km/h
01.06.2020 04:50 8.4 C 84 % 1018.2 hPa 0.0 l/m 0.1 km/h N-NO 32 0 min 0 min 0 W/m 1.6 km/h
01.06.2020 04:45 8.3 C 84 % 1018.2 hPa 0.0 l/m 0.8 km/h N-NO 32 0 min 0 min 0 W/m 1.6 km/h
01.06.2020 04:40 8.6 C 83 % 1018.1 hPa 0.0 l/m 0.0 km/h N-NO 32 0 min 0 min 0 W/m 1.6 km/h
01.06.2020 04:35 8.8 C 82 % 1018.1 hPa 0.0 l/m 0.0 km/h N-NO 32 0 min 0 min 0 W/m 0.0 km/h
01.06.2020 04:30 9.0 C 81 % 1018.2 hPa 0.0 l/m 0.9 km/h N-NO 32 0 min 0 min 0 W/m 3.2 km/h
01.06.2020 04:25 9.2 C 80 % 1018.1 hPa 0.0 l/m 1.4 km/h N-NO 32 0 min 0 min 0 W/m 3.2 km/h
01.06.2020 04:20 9.1 C 81 % 1018.2 hPa 0.0 l/m 2.0 km/h N-NO 28 0 min 0 min 0 W/m 3.2 km/h
01.06.2020 04:15 9.2 C 81 % 1018.2 hPa 0.0 l/m 0.8 km/h NW 316 0 min 0 min 0 W/m 1.6 km/h
01.06.2020 04:10 9.3 C 79 % 1018.2 hPa 0.0 l/m 0.1 km/h NW 316 0 min 0 min 0 W/m 1.6 km/h
01.06.2020 04:05 9.6 C 78 % 1018.1 hPa 0.0 l/m 0.7 km/h NW 316 0 min 0 min 0 W/m 1.6 km/h
01.06.2020 04:00 9.9 C 76 % 1018.1 hPa 0.0 l/m 0.7 km/h NW 316 0 min 0 min 0 W/m 1.6 km/h
01.06.2020 03:55 10.2 C 75 % 1018.2 hPa 0.0 l/m 2.3 km/h NW 316 0 min 0 min 0 W/m 4.8 km/h
01.06.2020 03:50 9.9 C 76 % 1018.1 hPa 0.0 l/m 2.6 km/h W-NW 302 0 min 0 min 0 W/m 4.8 km/h
01.06.2020 03:45 9.9 C 78 % 1018.0 hPa 0.0 l/m 1.7 km/h N-NW 331 0 min 0 min 0 W/m 3.2 km/h
01.06.2020 03:40 9.5 C 79 % 1018.0 hPa 0.0 l/m 2.7 km/h N-NW 333 0 min 0 min 0 W/m 6.4 km/h
01.06.2020 03:35 9.6 C 78 % 1018.0 hPa 0.0 l/m 3.6 km/h N-NW 345 0 min 0 min 0 W/m 6.4 km/h
01.06.2020 03:30 9.7 C 76 % 1018.0 hPa 0.0 l/m 4.6 km/h N-NW 348 0 min 0 min 0 W/m 6.4 km/h
01.06.2020 03:25 9.8 C 76 % 1018.1 hPa 0.0 l/m 4.2 km/h N 351 0 min 0 min 0 W/m 6.4 km/h
01.06.2020 03:20 9.9 C 76 % 1018.1 hPa 0.0 l/m 3.4 km/h N-NW 339 0 min 0 min 0 W/m 6.4 km/h
01.06.2020 03:15 10.0 C 75 % 1018.2 hPa 0.0 l/m 3.8 km/h N-NW 341 0 min 0 min 0 W/m 4.8 km/h
01.06.2020 03:10 10.0 C 76 % 1018.2 hPa 0.0 l/m 3.1 km/h N-NW 340 0 min 0 min 0 W/m 4.8 km/h
01.06.2020 03:05 9.9 C 76 % 1018.2 hPa 0.0 l/m 3.9 km/h N-NW 347 0 min 0 min 0 W/m 6.4 km/h
01.06.2020 03:00 9.9 C 76 % 1018.2 hPa 0.0 l/m 4.0 km/h N-NW 342 0 min 0 min 0 W/m 6.4 km/h
01.06.2020 02:55 10.0 C 76 % 1018.3 hPa 0.0 l/m 3.7 km/h N-NW 333 0 min 0 min 0 W/m 6.4 km/h
01.06.2020 02:50 10.0 C 75 % 1018.3 hPa 0.0 l/m 2.4 km/h N-NW 341 0 min 0 min 0 W/m 4.8 km/h
01.06.2020 02:45 10.1 C 75 % 1018.3 hPa 0.0 l/m 2.6 km/h N-NW 348 0 min 0 min 0 W/m 6.4 km/h
01.06.2020 02:40 10.1 C 75 % 1018.3 hPa 0.0 l/m 3.1 km/h NW 314 0 min 0 min 0 W/m 6.4 km/h
01.06.2020 02:35 10.1 C 75 % 1018.3 hPa 0.0 l/m 3.6 km/h N-NW 346 0 min 0 min 0 W/m 8.0 km/h
01.06.2020 02:30 10.1 C 75 % 1018.3 hPa 0.0 l/m 2.6 km/h N-NW 339 0 min 0 min 0 W/m 4.8 km/h
01.06.2020 02:25 10.1 C 75 % 1018.3 hPa 0.0 l/m 2.7 km/h N-NW 341 0 min 0 min 0 W/m 4.8 km/h
01.06.2020 02:20 10.2 C 74 % 1018.4 hPa 0.0 l/m 2.6 km/h N-NW 341 0 min 0 min 0 W/m 4.8 km/h
01.06.2020 02:15 10.3 C 73 % 1018.4 hPa 0.0 l/m 1.4 km/h N-NW 342 0 min 0 min 0 W/m 3.2 km/h
01.06.2020 02:10 10.6 C 72 % 1018.4 hPa 0.0 l/m 1.0 km/h N-NW 342 0 min 0 min 0 W/m 3.2 km/h
01.06.2020 02:05 10.9 C 71 % 1018.4 hPa 0.0 l/m 0.7 km/h N-NW 342 0 min 0 min 0 W/m 3.2 km/h
01.06.2020 02:00 11.2 C 70 % 1018.4 hPa 0.0 l/m 1.1 km/h N-NW 342 0 min 0 min 0 W/m 3.2 km/h
01.06.2020 01:55 11.2 C 70 % 1018.4 hPa 0.0 l/m 2.2 km/h N-NW 342 0 min 0 min 0 W/m 4.8 km/h
01.06.2020 01:50 11.2 C 70 % 1018.4 hPa 0.0 l/m 3.1 km/h N 351 0 min 0 min 0 W/m 6.4 km/h
01.06.2020 01:45 11.3 C 69 % 1018.3 hPa 0.0 l/m 3.7 km/h N 5 0 min 0 min 0 W/m 6.4 km/h
01.06.2020 01:40 11.2 C 69 % 1018.4 hPa 0.0 l/m 3.1 km/h NO 34 0 min 0 min 0 W/m 6.4 km/h
01.06.2020 01:35 11.2 C 69 % 1018.4 hPa 0.0 l/m 3.7 km/h N-NO 20 0 min 0 min 0 W/m 6.4 km/h
01.06.2020 01:30 11.2 C 69 % 1018.4 hPa 0.0 l/m 4.1 km/h N-NO 13 0 min 0 min 0 W/m 8.0 km/h
01.06.2020 01:25 11.2 C 70 % 1018.4 hPa 0.0 l/m 4.5 km/h N 355 0 min 0 min 0 W/m 6.4 km/h
01.06.2020 01:20 11.2 C 70 % 1018.4 hPa 0.0 l/m 3.8 km/h N 5 0 min 0 min 0 W/m 6.4 km/h
01.06.2020 01:15 10.9 C 71 % 1018.4 hPa 0.0 l/m 4.4 km/h N-NW 348 0 min 0 min 0 W/m 8.0 km/h
01.06.2020 01:10 11.0 C 70 % 1018.5 hPa 0.0 l/m 4.1 km/h N 351 0 min 0 min 0 W/m 4.8 km/h
01.06.2020 01:05 11.2 C 70 % 1018.5 hPa 0.0 l/m 4.3 km/h N 5 0 min 0 min 0 W/m 6.4 km/h
01.06.2020 01:00 11.4 C 69 % 1018.5 hPa 0.0 l/m 3.3 km/h N 360 0 min 0 min 0 W/m 6.4 km/h
01.06.2020 00:55 11.4 C 69 % 1018.5 hPa 0.0 l/m 2.9 km/h N-NW 343 0 min 0 min 0 W/m 4.8 km/h
01.06.2020 00:50 11.6 C 68 % 1018.5 hPa 0.0 l/m 3.3 km/h N-NW 341 0 min 0 min 0 W/m 8.0 km/h
01.06.2020 00:45 11.6 C 68 % 1018.5 hPa 0.0 l/m 2.7 km/h N 355 0 min 0 min 0 W/m 4.8 km/h
01.06.2020 00:40 11.7 C 68 % 1018.5 hPa 0.0 l/m 3.3 km/h N-NW 348 0 min 0 min 0 W/m 6.4 km/h
01.06.2020 00:35 11.9 C 67 % 1018.6 hPa 0.0 l/m 2.7 km/h N-NW 345 0 min 0 min 0 W/m 4.8 km/h
01.06.2020 00:30 11.9 C 66 % 1018.5 hPa 0.0 l/m 2.6 km/h N 360 0 min 0 min 0 W/m 4.8 km/h
01.06.2020 00:25 12.0 C 66 % 1018.5 hPa 0.0 l/m 1.9 km/h N 360 0 min 0 min 0 W/m 3.2 km/h
01.06.2020 00:21 12.1 C 66 % 1018.5 hPa 0.0 l/m 2.8 km/h N 360 0 min 0 min 0 W/m 6.4 km/h
01.06.2020 00:15 12.2 C 65 % 1018.5 hPa 0.0 l/m 3.4 km/h N-NW 344 0 min 0 min 0 W/m 6.4 km/h
01.06.2020 00:10 12.4 C 64 % 1018.6 hPa 0.0 l/m 3.3 km/h N-NW 329 0 min 0 min 0 W/m 6.4 km/h
01.06.2020 00:05 12.5 C 64 % 1018.5 hPa 0.0 l/m 3.6 km/h N 360 0 min 0 min 0 W/m 6.4 km/h
01.06.2020 00:00 12.6 C 64 % 1018.6 hPa 0.0 l/m 3.4 km/h N 360 0 min 0 min 0 W/m 6.4 km/h
31.05.2020 23:55 12.7 C 63 % 1018.6 hPa 0.0 l/m 2.6 km/h N 10 0 min 0 min 0 W/m 6.4 km/h
31.05.2020 23:50 12.7 C 63 % 1018.6 hPa 0.0 l/m 2.7 km/h N-NW 342 0 min 0 min 0 W/m 6.4 km/h
31.05.2020 23:45 12.6 C 63 % 1018.5 hPa 0.0 l/m 2.1 km/h O-NO 61 0 min 0 min 0 W/m 4.8 km/h
31.05.2020 23:40 12.8 C 62 % 1018.6 hPa 0.0 l/m 3.4 km/h N 5 0 min 0 min 0 W/m 6.4 km/h
31.05.2020 23:35 12.8 C 63 % 1018.6 hPa 0.0 l/m 3.4 km/h N 5 0 min 0 min 0 W/m 6.4 km/h
31.05.2020 23:30 12.6 C 64 % 1018.6 hPa 0.0 l/m 3.0 km/h N-NO 14 0 min 0 min 0 W/m 4.8 km/h
31.05.2020 23:25 12.4 C 64 % 1018.6 hPa 0.0 l/m 2.0 km/h N-NO 19 0 min 0 min 0 W/m 4.8 km/h
31.05.2020 23:20 12.7 C 63 % 1018.6 hPa 0.0 l/m 1.7 km/h N 360 0 min 0 min 0 W/m 4.8 km/h
31.05.2020 23:15 12.7 C 63 % 1018.7 hPa 0.0 l/m 2.1 km/h N 360 0 min 0 min 0 W/m 4.8 km/h
31.05.2020 23:10 12.7 C 63 % 1018.7 hPa 0.0 l/m 2.5 km/h N-NO 12 0 min 0 min 0 W/m 4.8 km/h
31.05.2020 23:05 12.6 C 64 % 1018.7 hPa 0.0 l/m 1.9 km/h N 5 0 min 0 min 0 W/m 3.2 km/h
31.05.2020 23:00 12.5 C 64 % 1018.7 hPa 0.0 l/m 1.5 km/h N 355 0 min 0 min 0 W/m 4.8 km/h
31.05.2020 22:55 12.3 C 65 % 1018.7 hPa 0.0 l/m 1.7 km/h N-NO 29 0 min 0 min 0 W/m 4.8 km/h
31.05.2020 22:50 12.5 C 65 % 1018.7 hPa 0.0 l/m 1.9 km/h NO 47 0 min 0 min 0 W/m 3.2 km/h
31.05.2020 22:45 12.7 C 65 % 1018.7 hPa 0.0 l/m 1.0 km/h NO 52 0 min 0 min 0 W/m 3.2 km/h
31.05.2020 22:40 12.9 C 64 % 1018.6 hPa 0.0 l/m 0.7 km/h NO 52 0 min 0 min 0 W/m 3.2 km/h
31.05.2020 22:35 12.9 C 65 % 1018.6 hPa 0.0 l/m 1.1 km/h NO 52 0 min 0 min 0 W/m 4.8 km/h
31.05.2020 22:30 12.8 C 66 % 1018.5 hPa 0.0 l/m 0.0 km/h NO 38 0 min 0 min 0 W/m 1.6 km/h
31.05.2020 22:25 12.7 C 65 % 1018.5 hPa 0.0 l/m 0.1 km/h NO 38 0 min 0 min 0 W/m 1.6 km/h
31.05.2020 22:20 13.0 C 63 % 1018.6 hPa 0.0 l/m 0.7 km/h NO 38 0 min 0 min 0 W/m 1.6 km/h
31.05.2020 22:15 13.2 C 62 % 1018.6 hPa 0.0 l/m 1.3 km/h NO 38 0 min 0 min 0 W/m 3.2 km/h
31.05.2020 22:10 13.1 C 62 % 1018.5 hPa 0.0 l/m 1.9 km/h NO 38 0 min 0 min 0 W/m 3.2 km/h
31.05.2020 22:05 13.3 C 62 % 1018.5 hPa 0.0 l/m 2.0 km/h NO 40 0 min 0 min 0 W/m 3.2 km/h
31.05.2020 22:00 13.8 C 59 % 1018.5 hPa 0.0 l/m 2.1 km/h NO 40 0 min 0 min 0 W/m 4.8 km/h
31.05.2020 21:55 14.0 C 59 % 1018.4 hPa 0.0 l/m 1.4 km/h N-NO 13 0 min 0 min 0 W/m 3.2 km/h
31.05.2020 21:50 14.4 C 57 % 1018.4 hPa 0.0 l/m 2.5 km/h N-NO 14 0 min 0 min 0 W/m 4.8 km/h
31.05.2020 21:45 14.9 C 55 % 1018.3 hPa 0.0 l/m 2.6 km/h NO 38 0 min 0 min 0 W/m 4.8 km/h
31.05.2020 21:40 15.1 C 55 % 1018.2 hPa 0.0 l/m 3.2 km/h N-NO 23 0 min 0 min 0 W/m 6.4 km/h
31.05.2020 21:35 15.3 C 53 % 1018.2 hPa 0.0 l/m 4.7 km/h N-NO 13 0 min 0 min 0 W/m 9.7 km/h
31.05.2020 21:30 15.5 C 53 % 1018.2 hPa 0.0 l/m 5.4 km/h N-NO 20 0 min 0 min 0 W/m 8.0 km/h
31.05.2020 21:25 15.8 C 52 % 1018.1 hPa 0.0 l/m 6.2 km/h N 10 0 min 0 min 2 W/m 14.5 km/h
31.05.2020 21:20 15.9 C 51 % 1018.1 hPa 0.0 l/m 5.9 km/h N-NW 331 0 min 0 min 5 W/m 11.3 km/h
31.05.2020 21:15 15.9 C 51 % 1018.0 hPa 0.0 l/m 6.0 km/h N-NW 337 0 min 0 min 8 W/m 11.3 km/h
31.05.2020 21:10 16.1 C 51 % 1018.0 hPa 0.0 l/m 5.8 km/h N 5 0 min 0 min 10 W/m 12.9 km/h
31.05.2020 21:05 16.2 C 50 % 1018.0 hPa 0.0 l/m 5.9 km/h N-NW 348 0 min 0 min 12 W/m 12.9 km/h
31.05.2020 21:00 16.3 C 50 % 1018.0 hPa 0.0 l/m 5.4 km/h N-NO 22 0 min 0 min 14 W/m 11.3 km/h
31.05.2020 20:55 16.6 C 49 % 1018.1 hPa 0.0 l/m 4.7 km/h N-NO 30 0 min 0 min 16 W/m 9.7 km/h
31.05.2020 20:50 16.8 C 48 % 1018.0 hPa 0.0 l/m 8.2 km/h NO 47 0 min 0 min 18 W/m 14.5 km/h
31.05.2020 20:45 16.9 C 48 % 1017.9 hPa 0.0 l/m 7.6 km/h N-NO 25 0 min 0 min 23 W/m 14.5 km/h
31.05.2020 20:40 17.0 C 48 % 1017.9 hPa 0.0 l/m 9.6 km/h N-NW 346 0 min 0 min 30 W/m 19.3 km/h
31.05.2020 20:35 17.2 C 47 % 1017.9 hPa 0.0 l/m 7.5 km/h N-NO 14 0 min 0 min 34 W/m 16.1 km/h
31.05.2020 20:30 17.3 C 47 % 1017.9 hPa 0.0 l/m 6.2 km/h N 355 0 min 0 min 30 W/m 14.5 km/h
31.05.2020 20:25 17.4 C 46 % 1017.8 hPa 0.0 l/m 6.5 km/h N-NO 20 0 min 0 min 35 W/m 12.9 km/h
31.05.2020 20:20 17.5 C 46 % 1017.8 hPa 0.0 l/m 8.8 km/h N-NO 24 0 min 0 min 64 W/m 17.7 km/h
31.05.2020 20:15 17.6 C 46 % 1017.8 hPa 0.0 l/m 11.3 km/h N-NW 344 5 min 0 min 78 W/m 19.3 km/h
31.05.2020 20:10 17.7 C 46 % 1017.7 hPa 0.0 l/m 10.0 km/h N-NO 24 5 min 0 min 90 W/m 17.7 km/h
31.05.2020 20:05 17.8 C 46 % 1017.7 hPa 0.0 l/m 10.7 km/h N 11 5 min 0 min 104 W/m 20.9 km/h
31.05.2020 20:00 17.8 C 45 % 1017.7 hPa 0.0 l/m 10.0 km/h N 5 5 min 0 min 119 W/m 19.3 km/h
31.05.2020 19:55 17.9 C 45 % 1017.7 hPa 0.0 l/m 11.0 km/h NW 317 5 min 0 min 133 W/m 20.9 km/h
31.05.2020 19:50 17.9 C 45 % 1017.7 hPa 0.0 l/m 9.2 km/h NO 44 5 min 0 min 149 W/m 20.9 km/h
31.05.2020 19:45 18.0 C 44 % 1017.7 hPa 0.0 l/m 9.6 km/h O-NO 67 5 min 0 min 162 W/m 17.7 km/h
31.05.2020 19:40 18.1 C 43 % 1017.6 hPa 0.0 l/m 12.0 km/h O-NO 65 5 min 0 min 177 W/m 22.5 km/h
31.05.2020 19:35 18.2 C 43 % 1017.6 hPa 0.0 l/m 12.4 km/h NO 36 5 min 0 min 189 W/m 22.5 km/h
31.05.2020 19:30 18.3 C 44 % 1017.6 hPa 0.0 l/m 12.2 km/h N 10 5 min 0 min 202 W/m 24.1 km/h
31.05.2020 19:25 18.4 C 44 % 1017.5 hPa 0.0 l/m 9.8 km/h N-NO 28 5 min 0 min 216 W/m 19.3 km/h
31.05.2020 19:20 18.6 C 43 % 1017.5 hPa 0.0 l/m 14.3 km/h N-NO 30 5 min 0 min 228 W/m 24.1 km/h
31.05.2020 19:15 18.8 C 43 % 1017.5 hPa 0.0 l/m 13.2 km/h N-NO 30 5 min 0 min 247 W/m 24.1 km/h
31.05.2020 19:10 18.9 C 42 % 1017.5 hPa 0.0 l/m 14.6 km/h O-NO 71 5 min 0 min 263 W/m 27.4 km/h
31.05.2020 19:05 19.1 C 41 % 1017.4 hPa 0.0 l/m 11.3 km/h N-NO 30 5 min 0 min 278 W/m 25.7 km/h
31.05.2020 19:00 19.3 C 41 % 1017.4 hPa 0.0 l/m 12.6 km/h N-NO 13 5 min 0 min 296 W/m 19.3 km/h
31.05.2020 18:55 19.6 C 41 % 1017.3 hPa 0.0 l/m 12.0 km/h N-NO 26 5 min 0 min 323 W/m 22.5 km/h
31.05.2020 18:50 19.7 C 41 % 1017.4 hPa 0.0 l/m 11.8 km/h O-NO 78 5 min 0 min 338 W/m 25.7 km/h
31.05.2020 18:45 19.7 C 42 % 1017.4 hPa 0.0 l/m 9.8 km/h N-NO 22 5 min 0 min 339 W/m 16.1 km/h
31.05.2020 18:40 19.7 C 40 % 1017.4 hPa 0.0 l/m 14.8 km/h N-NO 23 5 min 0 min 344 W/m 24.1 km/h
31.05.2020 18:35 19.7 C 41 % 1017.3 hPa 0.0 l/m 14.9 km/h NO 46 5 min 0 min 359 W/m 25.7 km/h
31.05.2020 18:30 20.1 C 40 % 1017.3 hPa 0.0 l/m 12.9 km/h N-NO 14 5 min 0 min 358 W/m 29.0 km/h
31.05.2020 18:25 20.3 C 40 % 1017.2 hPa 0.0 l/m 10.6 km/h NO 43 5 min 0 min 385 W/m 19.3 km/h
31.05.2020 18:20 20.4 C 38 % 1017.2 hPa 0.0 l/m 8.6 km/h N-NO 30 5 min 0 min 411 W/m 20.9 km/h
31.05.2020 18:15 20.5 C 40 % 1017.2 hPa 0.0 l/m 7.8 km/h O 96 5 min 0 min 443 W/m 19.3 km/h
31.05.2020 18:10 20.4 C 40 % 1017.2 hPa 0.0 l/m 9.0 km/h NO 46 5 min 0 min 457 W/m 16.1 km/h
31.05.2020 18:05 20.2 C 39 % 1017.2 hPa 0.0 l/m 13.9 km/h N 9 5 min 0 min 475 W/m 24.1 km/h
31.05.2020 18:00 20.3 C 39 % 1017.3 hPa 0.0 l/m 12.2 km/h NO 43 5 min 0 min 479 W/m 25.7 km/h
31.05.2020 17:55 20.6 C 41 % 1017.3 hPa 0.0 l/m 5.7 km/h N-NO 23 5 min 0 min 497 W/m 12.9 km/h
31.05.2020 17:50 20.7 C 38 % 1017.3 hPa 0.0 l/m 10.1 km/h N-NO 31 5 min 0 min 522 W/m 20.9 km/h
31.05.2020 17:45 20.7 C 40 % 1017.3 hPa 0.0 l/m 9.6 km/h N 355 5 min 0 min 537 W/m 22.5 km/h
31.05.2020 17:40 20.3 C 42 % 1017.3 hPa 0.0 l/m 7.3 km/h N 355 5 min 0 min 499 W/m 17.7 km/h
31.05.2020 17:35 19.9 C 42 % 1017.4 hPa 0.0 l/m 8.4 km/h N-NO 29 5 min 0 min 434 W/m 17.7 km/h
31.05.2020 17:30 19.9 C 39 % 1017.4 hPa 0.0 l/m 11.4 km/h N-NW 348 5 min 0 min 411 W/m 19.3 km/h
31.05.2020 17:25 19.8 C 41 % 1017.4 hPa 0.0 l/m 8.5 km/h NO 41 5 min 0 min 401 W/m 19.3 km/h
31.05.2020 17:20 19.6 C 41 % 1017.4 hPa 0.0 l/m 6.9 km/h N 351 5 min 0 min 352 W/m 14.5 km/h
31.05.2020 17:15 19.4 C 41 % 1017.4 hPa 0.0 l/m 8.5 km/h N-NO 30 0 min 0 min 311 W/m 20.9 km/h
31.05.2020 17:10 19.4 C 43 % 1017.3 hPa 0.0 l/m 11.6 km/h NO 53 0 min 0 min 262 W/m 20.9 km/h
31.05.2020 17:05 19.7 C 41 % 1017.3 hPa 0.0 l/m 11.4 km/h N-NO 17 0 min 0 min 296 W/m 20.9 km/h
31.05.2020 17:00 20.3 C 40 % 1017.3 hPa 0.0 l/m 9.8 km/h NO 49 5 min 0 min 424 W/m 17.7 km/h
31.05.2020 16:55 20.4 C 42 % 1017.3 hPa 0.0 l/m 8.1 km/h N 11 5 min 0 min 416 W/m 17.7 km/h
31.05.2020 16:50 20.1 C 41 % 1017.3 hPa 0.0 l/m 11.0 km/h NO 34 5 min 0 min 427 W/m 24.1 km/h
31.05.2020 16:45 20.6 C 41 % 1017.3 hPa 0.0 l/m 10.3 km/h N 5 5 min 0 min 525 W/m 19.3 km/h
31.05.2020 16:40 20.7 C 41 % 1017.2 hPa 0.0 l/m 12.5 km/h N-NO 13 5 min 0 min 573 W/m 22.5 km/h
31.05.2020 16:35 20.6 C 42 % 1017.2 hPa 0.0 l/m 11.2 km/h N-NO 19 5 min 0 min 522 W/m 17.7 km/h
31.05.2020 16:30 20.7 C 40 % 1017.3 hPa 0.0 l/m 12.0 km/h N-NW 344 5 min 0 min 698 W/m 20.9 km/h
31.05.2020 16:25 20.8 C 38 % 1017.2 hPa 0.0 l/m 13.3 km/h N-NO 30 5 min 0 min 665 W/m 25.7 km/h
31.05.2020 16:20 20.7 C 40 % 1017.2 hPa 0.0 l/m 11.3 km/h O-NO 67 5 min 0 min 687 W/m 24.1 km/h
31.05.2020 16:15 20.9 C 39 % 1017.3 hPa 0.0 l/m 9.7 km/h O-NO 67 5 min 0 min 659 W/m 22.5 km/h
31.05.2020 16:10 20.8 C 42 % 1017.3 hPa 0.0 l/m 11.3 km/h NO 45 5 min 0 min 724 W/m 25.7 km/h
31.05.2020 16:05 20.9 C 39 % 1017.3 hPa 0.0 l/m 12.9 km/h N-NO 22 5 min 0 min 759 W/m 24.1 km/h
31.05.2020 16:00 21.2 C 39 % 1017.3 hPa 0.0 l/m 14.5 km/h NO 43 5 min 0 min 786 W/m 25.7 km/h
_ Min-Zeit 06:00 16:25 15:15 - 22:30 - - - - - 04:35
Minimum _ 7.5 C 38 % 1017.0 hPa - 0.0 km/h - - - - - 0.0 km/h
_ Max-Zeit 14:50 05:55 22:45 16:00 18:35 - - 16:00 16:00 13:05 18:30
Maximum _ 24.8 C 89 % 1018.7 hPa 0.0 l/m 14.9 km/h
NO
- - 5 min 0 min 910 W/m 29.0 km/h
N-NW
Durchschnitt _ 15.9 C 59 % 1018.0 hPa #0.0 l/m 6.6 km/h N-NO - #8:25 h #0 min. 578 W/m 13.1 km/h